Time;durP1;ratioP1;P1;durP2;ratioP2;P2;SDS_P1;SDS_P2;PMS_P1;PMS_P2;Temp;Humidity;BMP_temperature;BMP_pressure;BME280_temperature;BME280_humidity;BME280_pressure;Samples;Min_cycle;Max_cycle;Signal;HPM_P1;HPM_P2
2024/01/03 00:00:32;;;;;;;0.9;0.6;;;;;;;7.52;89.85547;922.9786;;;;
2024/01/03 00:03:25;;;;;;;1;0.7;;;;;;;7.58;90.18359;922.9222;;;;
2024/01/03 00:05:52;;;;;;;1.1;0.8;;;;;;;7.53;89.68457;923.0031;;;;
2024/01/03 00:08:18;;;;;;;0.9;0.9;;;;;;;7.51;90.13281;922.97;;;;
2024/01/03 00:11:01;;;;;;;0.6;0.6;;;;;;;7.5;88.20508;922.9708;;;;
2024/01/03 00:13:42;;;;;;;0.7;0.6;;;;;;;7.65;87.44336;922.9649;;;;
2024/01/03 00:16:15;;;;;;;0.5;0.5;;;;;;;7.65;87.98535;923.0687;;;;
2024/01/03 00:18:58;;;;;;;1.1;0.7;;;;;;;7.62;88.55859;923.0134;;;;
2024/01/03 00:21:37;;;;;;;0.7;0.7;;;;;;;7.67;88.58105;923.1739;;;;
2024/01/03 00:24:15;;;;;;;0.6;0.4;;;;;;;7.64;88.34668;923.0948;;;;
2024/01/03 00:27:01;;;;;;;0.5;0.4;;;;;;;7.66;86.41309;923.1185;;;;
2024/01/03 00:29:55;;;;;;;0.4;0.4;;;;;;;7.68;86.3252;923.1272;;;;
2024/01/03 00:32:42;;;;;;;0.4;0.4;;;;;;;7.69;85.88672;923.1311;;;;
2024/01/03 00:35:23;;;;;;;0.3;0.3;;;;;;;7.63;86.50781;923.1725;;;;
2024/01/03 00:38:01;;;;;;;0.4;0.4;;;;;;;7.62;87.18848;923.1671;;;;
2024/01/03 00:40:55;;;;;;;0.3;0.3;;;;;;;7.71;87.55566;923.192;;;;
2024/01/03 00:43:21;;;;;;;0.5;0.5;;;;;;;7.68;88.34473;923.3022;;;;
2024/01/03 00:45:47;;;;;;;0.4;0.4;;;;;;;7.66;88.70215;923.2453;;;;
2024/01/03 00:48:26;;;;;;;0.7;0.4;;;;;;;7.65;89.80176;923.4306;;;;
2024/01/03 00:51:05;;;;;;;0.9;0.6;;;;;;;7.69;90.19531;923.3814;;;;
2024/01/03 00:53:45;;;;;;;0.4;0.4;;;;;;;7.71;90.82324;923.5073;;;;
2024/01/03 00:56:23;;;;;;;1.1;0.7;;;;;;;7.73;89.58984;923.5912;;;;
2024/01/03 00:59:05;;;;;;;0.5;0.5;;;;;;;7.69;88.93652;923.5977;;;;
2024/01/03 01:01:31;;;;;;;1.3;0.5;;;;;;;7.73;88.18555;923.649;;;;
2024/01/03 01:04:13;;;;;;;0.4;0.4;;;;;;;7.78;86.99219;923.7954;;;;
2024/01/03 01:06:41;;;;;;;1.1;1.1;;;;;;;7.79;88.18555;923.8349;;;;
2024/01/03 01:09:19;;;;;;;1.9;1;;;;;;;7.68;89.42188;923.8147;;;;
2024/01/03 01:11:58;;;;;;;1;1;;;;;;;7.71;88.97363;923.7132;;;;
2024/01/03 01:14:37;;;;;;;2.1;1.3;;;;;;;7.7;89.48242;923.825;;;;
2024/01/03 01:17:06;;;;;;;1.8;1.7;;;;;;;7.68;89.29688;923.7482;;;;
2024/01/03 01:19:45;;;;;;;0.8;0.8;;;;;;;7.6;89.30273;923.9612;;;;
2024/01/03 01:22:25;;;;;;;1.4;0.5;;;;;;;7.57;89.81934;924.0175;;;;
2024/01/03 01:25:04;;;;;;;0.5;0.5;;;;;;;7.58;90.03613;924.046;;;;
2024/01/03 01:27:31;;;;;;;0.5;0.5;;;;;;;7.63;89.85547;924.1428;;;;
2024/01/03 01:30:15;;;;;;;0.7;0.4;;;;;;;7.62;89.62402;924.0898;;;;
2024/01/03 01:32:41;;;;;;;0.5;0.4;;;;;;;7.6;89.83789;923.9778;;;;
2024/01/03 01:35:06;;;;;;;0.4;0.4;;;;;;;7.8;88.63184;923.8428;;;;
2024/01/03 01:37:32;;;;;;;1.8;1.6;;;;;;;7.74;88.6416;923.9349;;;;
2024/01/03 01:40:11;;;;;;;0.5;0.5;;;;;;;7.77;89.13477;923.988;;;;
2024/01/03 01:42:50;;;;;;;0.4;0.4;;;;;;;7.77;89;923.9958;;;;
2024/01/03 01:45:29;;;;;;;0.8;0.8;;;;;;;7.78;88.8418;924.1122;;;;
2024/01/03 01:48:11;;;;;;;1.4;0.9;;;;;;;7.74;89.58301;923.9785;;;;
2024/01/03 01:50:52;;;;;;;0.6;0.6;;;;;;;7.63;90.17285;923.7832;;;;
2024/01/03 01:53:21;;;;;;;0.6;0.5;;;;;;;7.67;90.49609;923.8386;;;;
2024/01/03 01:56:13;;;;;;;0.8;0.8;;;;;;;7.68;90.375;923.7736;;;;
2024/01/03 01:58:40;;;;;;;0.6;0.6;;;;;;;7.67;90.39551;923.6437;;;;
2024/01/03 02:01:23;;;;;;;0.5;0.5;;;;;;;7.68;89.78516;923.6492;;;;
2024/01/03 02:04:04;;;;;;;0.6;0.5;;;;;;;7.66;89.4502;923.7189;;;;
2024/01/03 02:06:44;;;;;;;0.6;0.6;;;;;;;7.62;90.56738;923.7793;;;;
2024/01/03 02:09:10;;;;;;;0.4;0.4;;;;;;;7.61;90.23633;923.9417;;;;
2024/01/03 02:11:36;;;;;;;0.6;0.6;;;;;;;7.64;89.74121;923.9931;;;;
2024/01/03 02:14:12;;;;;;;0.8;0.5;;;;;;;7.77;88.91895;923.9982;;;;
2024/01/03 02:17:06;;;;;;;0.7;0.7;;;;;;;7.69;89.70801;924.0413;;;;
2024/01/03 02:19:48;;;;;;;0.7;0.5;;;;;;;7.7;90.19922;924.0602;;;;
2024/01/03 02:22:18;;;;;;;0.6;0.5;;;;;;;7.67;90.06641;924.1705;;;;
2024/01/03 02:24:58;;;;;;;0.7;0.7;;;;;;;7.62;91.20313;924.2062;;;;
2024/01/03 02:27:37;;;;;;;0.8;0.6;;;;;;;7.61;92.70703;924.2696;;;;
2024/01/03 02:30:21;;;;;;;1.4;1.3;;;;;;;7.51;94.02344;924.3115;;;;
2024/01/03 02:33:00;;;;;;;1.6;1.1;;;;;;;7.46;94.44238;924.4676;;;;
2024/01/03 02:35:38;;;;;;;1.8;1.1;;;;;;;7.45;95.44043;924.4518;;;;
2024/01/03 02:38:21;;;;;;;3.6;1.6;;;;;;;7.42;96.96191;924.4281;;;;
2024/01/03 02:41:00;;;;;;;2.4;0.8;;;;;;;7.4;97.12793;924.4389;;;;
2024/01/03 02:43:29;;;;;;;2;1.8;;;;;;;7.34;97.16113;924.553;;;;
2024/01/03 02:46:35;;;;;;;1.8;1.7;;;;;;;7.28;97.21289;924.6053;;;;
2024/01/03 02:49:14;;;;;;;1.6;0.8;;;;;;;7.42;96.29395;924.3964;;;;
2024/01/03 02:51:53;;;;;;;2.3;1.9;;;;;;;7.46;95.66699;924.4787;;;;
2024/01/03 02:54:18;;;;;;;2.1;1.9;;;;;;;7.34;95.77637;924.4778;;;;
2024/01/03 02:57:00;;;;;;;0.9;0.7;;;;;;;7.33;95.79688;924.3962;;;;
2024/01/03 02:59:38;;;;;;;1.8;1.7;;;;;;;7.24;95.41699;924.4319;;;;
2024/01/03 03:02:17;;;;;;;2.8;2.2;;;;;;;7.22;96.52051;924.413;;;;
2024/01/03 03:04:44;;;;;;;2;1.5;;;;;;;7.2;95.84668;924.2955;;;;
2024/01/03 03:07:10;;;;;;;2.6;1.4;;;;;;;7.18;95.68555;924.2709;;;;
2024/01/03 03:09:36;;;;;;;1.8;1.7;;;;;;;7.15;95.25879;924.358;;;;
2024/01/03 03:12:16;;;;;;;2;1.8;;;;;;;7.14;95.6416;924.3549;;;;
2024/01/03 03:14:57;;;;;;;1.4;1.2;;;;;;;7.22;95.45605;924.2831;;;;
2024/01/03 03:17:23;;;;;;;3.6;1.7;;;;;;;7.15;95.81543;924.313;;;;
2024/01/03 03:20:02;;;;;;;1.7;1.6;;;;;;;7.13;95.83203;924.472;;;;
2024/01/03 03:22:43;;;;;;;2.4;2.3;;;;;;;7.14;96.29883;924.5243;;;;
2024/01/03 03:25:09;;;;;;;2.7;2.5;;;;;;;7.15;96.09668;924.3359;;;;
2024/01/03 03:27:48;;;;;;;0.8;0.7;;;;;;;7.27;95.95508;924.2744;;;;
2024/01/03 03:30:39;;;;;;;0.5;0.5;;;;;;;7.23;95.83008;924.2847;;;;
2024/01/03 03:33:18;;;;;;;0.7;0.7;;;;;;;7.31;95.03418;924.2339;;;;
2024/01/03 03:35:57;;;;;;;0.6;0.6;;;;;;;7.2;95.23438;924.3081;;;;
2024/01/03 03:38:24;;;;;;;1.3;0.5;;;;;;;7.22;94.95703;924.2871;;;;
2024/01/03 03:41:03;;;;;;;0.8;0.8;;;;;;;7.14;94.5;924.4088;;;;
2024/01/03 03:43:34;;;;;;;0.9;0.9;;;;;;;7.13;94.66309;924.3723;;;;
2024/01/03 03:46:13;;;;;;;1.2;1.1;;;;;;;7.12;95.30957;924.449;;;;
2024/01/03 03:48:53;;;;;;;1.3;1.2;;;;;;;7.17;95.26465;924.4879;;;;
2024/01/03 03:51:32;;;;;;;1.6;1.5;;;;;;;7.13;96.02637;924.552;;;;
2024/01/03 03:54:16;;;;;;;2.1;2;;;;;;;7.07;96.08984;924.3367;;;;
2024/01/03 03:56:54;;;;;;;2;1.8;;;;;;;7.04;96.57129;924.3683;;;;
2024/01/03 03:59:33;;;;;;;2.1;1.5;;;;;;;7.06;97.06445;924.1571;;;;
2024/01/03 04:02:55;;;;;;;1.3;0.9;;;;;;;7.06;97.02832;924.2758;;;;
2024/01/03 04:05:34;;;;;;;1.1;1;;;;;;;7.01;96.36328;924.2773;;;;
2024/01/03 04:08:13;;;;;;;2.5;2.4;;;;;;;6.88;95.9248;924.0389;;;;
2024/01/03 04:10:51;;;;;;;1.9;1.8;;;;;;;6.88;96.5459;924.1276;;;;
2024/01/03 04:13:29;;;;;;;1.5;1.1;;;;;;;6.9;96.73242;924.0461;;;;
2024/01/03 04:16:08;;;;;;;2.5;2.3;;;;;;;6.92;96.91797;924.1165;;;;
2024/01/03 04:18:47;;;;;;;2.5;2.3;;;;;;;6.84;96.93359;924.0975;;;;
2024/01/03 04:21:26;;;;;;;1.3;1.2;;;;;;;6.9;97.52539;924.1577;;;;
2024/01/03 04:24:04;;;;;;;0.6;0.6;;;;;;;6.93;97.14844;924.0698;;;;
2024/01/03 04:26:31;;;;;;;1.8;0.6;;;;;;;6.94;96.75195;923.963;;;;
2024/01/03 04:29:09;;;;;;;0.5;0.5;;;;;;;6.96;97.14355;924.0714;;;;
2024/01/03 04:31:38;;;;;;;0.8;0.8;;;;;;;6.88;97.54395;924.2463;;;;
2024/01/03 04:34:05;;;;;;;0.8;0.8;;;;;;;6.84;97.0127;924.1917;;;;
2024/01/03 04:36:43;;;;;;;0.9;0.5;;;;;;;6.85;97.97754;923.9828;;;;
2024/01/03 04:39:21;;;;;;;0.7;0.7;;;;;;;6.98;97.96094;924.0041;;;;
2024/01/03 04:41:59;;;;;;;1.1;1;;;;;;;6.88;98.49316;923.9828;;;;
2024/01/03 04:44:37;;;;;;;2.1;0.9;;;;;;;6.85;98.01367;923.9741;;;;
2024/01/03 04:47:04;;;;;;;0.9;0.9;;;;;;;6.81;97.57227;923.9322;;;;
2024/01/03 04:49:42;;;;;;;2.1;0.8;;;;;;;6.81;97.41406;923.952;;;;
2024/01/03 04:52:21;;;;;;;0.8;0.7;;;;;;;6.77;97.69824;923.9769;;;;
2024/01/03 04:54:59;;;;;;;1.7;1;;;;;;;6.71;97.0752;923.7618;;;;
2024/01/03 04:57:51;;;;;;;1.1;1;;;;;;;6.68;97.37402;923.9515;;;;
2024/01/03 05:00:34;;;;;;;2.3;2;;;;;;;6.75;98.61133;923.7642;;;;
2024/01/03 05:03:03;;;;;;;3.1;1.8;;;;;;;6.77;98.96582;923.7159;;;;
2024/01/03 05:05:46;;;;;;;26.7;19.6;;;;;;;6.8;98.30664;923.7784;;;;
2024/01/03 05:08:27;;;;;;;13.1;10.8;;;;;;;6.83;98.01855;924.2201;;;;
2024/01/03 05:11:06;;;;;;;12.7;11.4;;;;;;;6.84;97.68066;924.4614;;;;
2024/01/03 05:13:44;;;;;;;5.3;4.8;;;;;;;6.79;98.76855;924.3203;;;;
2024/01/03 05:16:23;;;;;;;1.7;1.6;;;;;;;6.77;99.01074;924.3091;;;;
2024/01/03 05:19:01;;;;;;;2.6;2;;;;;;;6.78;98.6416;924.287;;;;
2024/01/03 05:21:39;;;;;;;2;1.7;;;;;;;6.79;98.33594;924.3669;;;;
2024/01/03 05:24:19;;;;;;;2.3;1.6;;;;;;;6.84;98.47363;924.4084;;;;
2024/01/03 05:27:01;;;;;;;95.1;49.1;;;;;;;6.85;99.09766;924.4534;;;;
2024/01/03 05:29:29;;;;;;;24.5;14.4;;;;;;;6.8;99.31348;924.3298;;;;
2024/01/03 05:32:07;;;;;;;9.7;6.8;;;;;;;6.79;98.94727;924.3116;;;;
2024/01/03 05:34:59;;;;;;;4.3;3.9;;;;;;;6.83;98.66309;924.2375;;;;
2024/01/03 05:37:25;;;;;;;4.3;3;;;;;;;6.82;98.62793;924.2541;;;;
2024/01/03 05:40:18;;;;;;;2.3;2.1;;;;;;;6.89;98.66504;924.3222;;;;
2024/01/03 05:42:58;;;;;;;9;6.8;;;;;;;6.83;99.19531;924.338;;;;
2024/01/03 05:45:36;;;;;;;7.1;4.9;;;;;;;6.78;99.37793;924.4468;;;;
2024/01/03 05:48:15;;;;;;;7.1;5.4;;;;;;;6.79;99.08301;924.3945;;;;
2024/01/03 05:50:54;;;;;;;6.4;5.1;;;;;;;6.81;99.65527;924.3292;;;;
2024/01/03 05:53:32;;;;;;;4.7;3.8;;;;;;;6.8;100;924.2712;;;;
2024/01/03 05:56:13;;;;;;;4.4;4;;;;;;;6.75;99.40332;924.1066;;;;
2024/01/03 05:58:55;;;;;;;5;2.7;;;;;;;6.71;99.54199;923.9666;;;;
2024/01/03 06:01:21;;;;;;;5.1;4.5;;;;;;;6.73;98.91211;923.9642;;;;
2024/01/03 06:04:01;;;;;;;4.8;4.4;;;;;;;6.6;98.37402;923.9425;;;;
2024/01/03 06:06:28;;;;;;;19.4;12.5;;;;;;;6.56;98.55566;923.8635;;;;
2024/01/03 06:08:59;;;;;;;69.2;41.6;;;;;;;6.52;99.62207;924.016;;;;
2024/01/03 06:11:25;;;;;;;42.7;26.8;;;;;;;6.53;99.08105;924.1298;;;;
2024/01/03 06:14:04;;;;;;;111.3;63.3;;;;;;;6.58;99.45605;924.3775;;;;
2024/01/03 06:16:33;;;;;;;44;26.2;;;;;;;6.61;99.11133;924.5098;;;;
2024/01/03 06:19:14;;;;;;;15.6;9.6;;;;;;;6.62;98.75195;924.5873;;;;
2024/01/03 06:21:42;;;;;;;5;4.5;;;;;;;6.63;98.37988;924.7385;;;;
2024/01/03 06:24:21;;;;;;;6.6;5.6;;;;;;;6.65;98.78027;924.8175;;;;
2024/01/03 06:27:04;;;;;;;3.6;2.9;;;;;;;6.71;98.75;925.0628;;;;
2024/01/03 06:29:42;;;;;;;2.4;2;;;;;;;6.78;98.85449;925.0844;;;;
2024/01/03 06:32:09;;;;;;;2.3;2.1;;;;;;;6.71;99.20215;925.1348;;;;
2024/01/03 06:34:47;;;;;;;2;1.6;;;;;;;6.73;100;925.1333;;;;
2024/01/03 06:37:12;;;;;;;2.3;2;;;;;;;6.67;100;925.0747;;;;
2024/01/03 06:39:54;;;;;;;2.7;2.3;;;;;;;6.56;99.29102;924.7182;;;;
2024/01/03 06:42:35;;;;;;;3.4;2.6;;;;;;;6.57;98.26367;924.6589;;;;
2024/01/03 06:45:14;;;;;;;3.7;2.7;;;;;;;6.55;98.36133;924.6256;;;;
2024/01/03 06:47:52;;;;;;;4.9;3.8;;;;;;;6.51;98.2041;924.4422;;;;
2024/01/03 06:50:33;;;;;;;5.9;4.8;;;;;;;6.47;98.39746;924.2413;;;;
2024/01/03 06:53:12;;;;;;;4.9;2.5;;;;;;;6.63;97.31641;924.1674;;;;
2024/01/03 06:55:50;;;;;;;2.2;1.6;;;;;;;6.51;97.85547;924.163;;;;
2024/01/03 06:58:29;;;;;;;1.9;1.4;;;;;;;6.35;98.8584;924.3292;;;;
2024/01/03 07:00:56;;;;;;;1.4;1.1;;;;;;;6.41;99.2334;924.5723;;;;
2024/01/03 07:03:34;;;;;;;1.6;1.5;;;;;;;6.41;98.91602;924.8546;;;;
2024/01/03 07:06:13;;;;;;;2.6;2.4;;;;;;;6.44;98.77539;925.1978;;;;
2024/01/03 07:08:53;;;;;;;2.1;2;;;;;;;6.45;98.41602;925.405;;;;
2024/01/03 07:11:19;;;;;;;2.8;1.9;;;;;;;6.43;98.41211;925.4255;;;;
2024/01/03 07:13:58;;;;;;;1.7;1.6;;;;;;;6.47;99.06641;925.4106;;;;
2024/01/03 07:16:40;;;;;;;1.3;1.2;;;;;;;6.48;98.25488;925.1877;;;;
2024/01/03 07:19:19;;;;;;;1.4;1.3;;;;;;;6.49;97.23828;925.1995;;;;
2024/01/03 07:22:13;;;;;;;3.5;2.4;;;;;;;6.53;97.48633;925.2622;;;;
2024/01/03 07:24:52;;;;;;;3.6;2.9;;;;;;;6.58;96.86328;925.2701;;;;
2024/01/03 07:27:38;;;;;;;2.6;2.4;;;;;;;6.53;97.04492;925.2986;;;;
2024/01/03 07:30:06;;;;;;;2.9;2.5;;;;;;;6.49;97.47363;925.413;;;;
2024/01/03 07:32:45;;;;;;;3;2.5;;;;;;;6.51;97.53711;925.3917;;;;
2024/01/03 07:35:23;;;;;;;4;3.6;;;;;;;6.51;97.81934;925.3744;;;;
2024/01/03 07:37:52;;;;;;;4.7;3.6;;;;;;;6.61;97.12012;925.5245;;;;
2024/01/03 07:40:31;;;;;;;4.7;3.2;;;;;;;6.52;97.84473;925.5365;;;;
2024/01/03 07:43:09;;;;;;;5.5;3.1;;;;;;;6.53;98.25586;925.5887;;;;
2024/01/03 07:45:48;;;;;;;4.2;2.9;;;;;;;6.5;98.2832;925.4305;;;;
2024/01/03 07:48:29;;;;;;;2.9;2.6;;;;;;;6.55;97.96582;925.5524;;;;
2024/01/03 07:51:11;;;;;;;2.2;1.8;;;;;;;6.48;97.41797;925.5767;;;;
2024/01/03 07:53:37;;;;;;;2.3;2.1;;;;;;;6.53;97.1582;925.5634;;;;
2024/01/03 07:56:29;;;;;;;4.1;2.8;;;;;;;6.57;97.29102;925.5367;;;;
2024/01/03 07:59:10;;;;;;;3.8;3.2;;;;;;;6.57;97.16699;925.6964;;;;
2024/01/03 08:01:51;;;;;;;3;2.7;;;;;;;6.61;97.74023;925.6389;;;;
2024/01/03 08:04:35;;;;;;;2.9;2.3;;;;;;;6.61;97.92383;925.6969;;;;
2024/01/03 08:07:16;;;;;;;2.6;2.2;;;;;;;6.51;96.62305;925.6937;;;;
2024/01/03 08:09:41;;;;;;;3.9;2.4;;;;;;;6.5;96.19043;925.6953;;;;
2024/01/03 08:12:19;;;;;;;4.3;2.6;;;;;;;6.47;96.88574;925.4771;;;;
2024/01/03 08:15:00;;;;;;;4.9;3.4;;;;;;;6.74;97.91797;925.3208;;;;
2024/01/03 08:17:26;;;;;;;4.8;3.9;;;;;;;7.37;97.76855;925.4698;;;;
2024/01/03 08:20:08;;;;;;;5;3.8;;;;;;;8.26;93.3584;925.4457;;;;
2024/01/03 08:22:47;;;;;;;4.1;3.2;;;;;;;9.03;89.88574;925.2176;;;;
2024/01/03 08:25:24;;;;;;;4.8;3.7;;;;;;;9.74;85.77051;925.1655;;;;
2024/01/03 08:27:50;;;;;;;4.6;3.4;;;;;;;10.05;83.67773;925.1711;;;;
2024/01/03 08:30:30;;;;;;;3.9;2.8;;;;;;;9.99;80.31348;925.2064;;;;
2024/01/03 08:34:09;;;;;;;2.6;2.2;;;;;;;9.42;83.20215;925.26;;;;
2024/01/03 08:36:37;;;;;;;2.9;2.5;;;;;;;9.41;83.46289;925.4174;;;;
2024/01/03 08:39:17;;;;;;;2.4;2.1;;;;;;;9.45;83.5625;925.3853;;;;
2024/01/03 08:41:43;;;;;;;2;1.8;;;;;;;9.3;83.81543;925.3591;;;;
2024/01/03 08:44:23;;;;;;;2.3;1.9;;;;;;;9.07;84.51172;925.4738;;;;
2024/01/03 08:47:01;;;;;;;2.9;2.2;;;;;;;8.74;86.16504;925.5598;;;;
2024/01/03 08:49:41;;;;;;;4.2;3.2;;;;;;;8.7;86.89453;925.5886;;;;
2024/01/03 08:52:21;;;;;;;4.2;3.3;;;;;;;8.67;86.91211;925.4625;;;;
2024/01/03 08:54:59;;;;;;;4.6;3.3;;;;;;;8.68;88.19629;925.5697;;;;
2024/01/03 08:57:43;;;;;;;4.8;3.4;;;;;;;8.77;87.88672;925.6367;;;;
2024/01/03 09:00:29;;;;;;;5.3;3.5;;;;;;;8.67;88.92383;925.5577;;;;
2024/01/03 09:03:10;;;;;;;13.1;6.7;;;;;;;8.64;89.03223;925.765;;;;
2024/01/03 09:05:48;;;;;;;10.6;6.4;;;;;;;8.44;90.37695;925.7059;;;;
2024/01/03 09:08:38;;;;;;;7.9;5.5;;;;;;;8.2;91.48242;925.6049;;;;
2024/01/03 09:11:00;;;;;;;6.4;4.7;;;;;;;8.21;90.47559;925.7471;;;;
2024/01/03 09:13:28;;;;;;;6.3;4.2;;;;;;;8.08;91.32129;925.686;;;;
2024/01/03 09:16:10;;;;;;;6.3;3.8;;;;;;;8.07;90.57031;925.6345;;;;
2024/01/03 09:18:48;;;;;;;4.8;2.6;;;;;;;8.11;89.80762;925.4861;;;;
2024/01/03 09:21:13;;;;;;;4.8;3.4;;;;;;;8.44;89.9668;925.4291;;;;
2024/01/03 09:23:53;;;;;;;7.8;4.8;;;;;;;9.27;89.24023;925.3561;;;;
2024/01/03 09:26:31;;;;;;;1.8;1.5;;;;;;;10.06;81.71777;925.2927;;;;
2024/01/03 09:29:09;;;;;;;2.3;1.9;;;;;;;10.68;79.19727;925.2823;;;;
2024/01/03 09:31:49;;;;;;;4.5;3.2;;;;;;;11.35;76.57227;925.3292;;;;
2024/01/03 09:34:26;;;;;;;3.3;2;;;;;;;11.94;75.40625;925.2756;;;;
2024/01/03 09:37:05;;;;;;;2.5;1.7;;;;;;;12.67;72.92871;925.2291;;;;
2024/01/03 09:39:45;;;;;;;11.2;5.1;;;;;;;13.31;69.1416;925.2791;;;;
2024/01/03 09:42:14;;;;;;;10.6;5.1;;;;;;;13.72;68.11328;925.2626;;;;
2024/01/03 09:44:55;;;;;;;3.4;2.2;;;;;;;14.01;65.30371;925.2742;;;;
2024/01/03 09:47:37;;;;;;;2.5;1.5;;;;;;;14.38;63.79297;925.2302;;;;
2024/01/03 09:50:16;;;;;;;1.9;1.6;;;;;;;14.57;63.35938;925.1624;;;;
2024/01/03 09:52:42;;;;;;;2.9;1.6;;;;;;;14.83;63.03906;925.2079;;;;
2024/01/03 09:55:20;;;;;;;3.5;2.8;;;;;;;14.74;63.10742;925.234;;;;
2024/01/03 09:57:46;;;;;;;2.5;2.1;;;;;;;14.79;63.67969;925.0732;;;;
2024/01/03 10:00:29;;;;;;;2.3;1.8;;;;;;;15.24;62.11914;924.9962;;;;
2024/01/03 10:03:07;;;;;;;4;2.9;;;;;;;15.19;63.08105;924.8506;;;;
2024/01/03 10:05:49;;;;;;;2.8;2;;;;;;;15.24;61.42676;924.8158;;;;
2024/01/03 10:08:15;;;;;;;2.3;1.6;;;;;;;15.21;62.11523;924.7794;;;;
2024/01/03 10:10:45;;;;;;;2.5;1.8;;;;;;;15.16;60.75586;924.6906;;;;
2024/01/03 10:13:30;;;;;;;3.1;1.8;;;;;;;15.08;62.60352;924.6839;;;;
2024/01/03 10:16:00;;;;;;;1.8;1.2;;;;;;;15.11;60.88867;924.6358;;;;
2024/01/03 10:18:38;;;;;;;2.3;1.7;;;;;;;14.92;58.94629;924.5618;;;;
2024/01/03 10:21:20;;;;;;;1.5;1.4;;;;;;;14.69;60.89844;924.3918;;;;
2024/01/03 10:23:59;;;;;;;0.8;0.8;;;;;;;14.52;62.30469;924.3347;;;;
2024/01/03 10:26:31;;;;;;;0.8;0.8;;;;;;;14.61;60.91113;924.2383;;;;
2024/01/03 10:29:10;;;;;;;0.9;0.8;;;;;;;14.72;58.67676;924.2219;;;;
2024/01/03 10:31:34;;;;;;;1;0.9;;;;;;;14.98;60.01563;924.1417;;;;
2024/01/03 10:34:17;;;;;;;1.3;1.2;;;;;;;15.05;59.27539;924.1976;;;;
2024/01/03 10:36:56;;;;;;;3.1;2.6;;;;;;;14.85;58.71973;924.0156;;;;
2024/01/03 10:39:34;;;;;;;4.1;3.2;;;;;;;14.73;59.39453;924.0028;;;;
2024/01/03 10:42:01;;;;;;;3.1;2.2;;;;;;;14.66;59.03906;924.1404;;;;
2024/01/03 10:44:42;;;;;;;3.2;2;;;;;;;14.75;61.26465;924.1625;;;;
2024/01/03 10:47:20;;;;;;;1.4;1.3;;;;;;;14.74;58.61133;924.1387;;;;
2024/01/03 10:50:00;;;;;;;0.7;0.7;;;;;;;14.82;56.87012;924.1905;;;;
2024/01/03 10:52:45;;;;;;;1.4;1.1;;;;;;;14.89;57.06348;924.1008;;;;
2024/01/03 10:55:27;;;;;;;2.7;0.9;;;;;;;14.95;56.30957;924.0854;;;;
2024/01/03 10:58:09;;;;;;;1.1;1;;;;;;;14.83;55.99609;923.9761;;;;
2024/01/03 11:00:53;;;;;;;0.7;0.7;;;;;;;14.89;55.5752;923.9905;;;;
2024/01/03 11:03:27;;;;;;;0.6;0.6;;;;;;;14.59;56.37793;924.0083;;;;
2024/01/03 11:06:12;;;;;;;0.7;0.7;;;;;;;14.35;58.62695;923.9747;;;;
2024/01/03 11:08:41;;;;;;;0.7;0.6;;;;;;;14.29;57.67578;923.8825;;;;
2024/01/03 11:11:14;;;;;;;0.6;0.6;;;;;;;14.11;58.52637;923.968;;;;
2024/01/03 11:13:55;;;;;;;1.5;0.8;;;;;;;13.96;60.38184;923.991;;;;
2024/01/03 11:16:50;;;;;;;3;1.2;;;;;;;13.83;60.26074;923.9441;;;;
2024/01/03 11:19:31;;;;;;;1.2;1;;;;;;;13.72;59.36035;924.0233;;;;
2024/01/03 11:22:12;;;;;;;1.9;1.1;;;;;;;13.61;58.32227;923.6755;;;;
2024/01/03 11:24:52;;;;;;;1.1;1;;;;;;;13.55;59.56641;923.726;;;;
2024/01/03 11:27:33;;;;;;;1.6;1.1;;;;;;;13.26;59.60742;923.7775;;;;
2024/01/03 11:30:11;;;;;;;1.2;1.1;;;;;;;13.26;60.5498;923.5667;;;;
2024/01/03 11:32:50;;;;;;;1.3;1.2;;;;;;;13.27;61.92969;923.6311;;;;
2024/01/03 11:35:29;;;;;;;1.4;1;;;;;;;13.16;61.73047;923.6586;;;;
2024/01/03 11:38:08;;;;;;;1.4;1.2;;;;;;;13.31;58.68359;923.5005;;;;
2024/01/03 11:40:55;;;;;;;1.6;1.2;;;;;;;13.29;58.80664;923.5273;;;;
2024/01/03 11:43:37;;;;;;;1.1;0.8;;;;;;;13.3;57.10938;923.4136;;;;
2024/01/03 11:46:20;;;;;;;0.9;0.6;;;;;;;13.31;58.48926;923.4789;;;;
2024/01/03 11:49:00;;;;;;;1.1;1;;;;;;;13.18;58.99902;923.2988;;;;
2024/01/03 11:51:38;;;;;;;1.3;1.2;;;;;;;13.13;58.70508;923.3391;;;;
2024/01/03 11:54:16;;;;;;;0.9;0.9;;;;;;;13.16;58.43359;923.4199;;;;
2024/01/03 11:56:42;;;;;;;2.1;1.2;;;;;;;13.05;59.52148;923.3823;;;;
2024/01/03 11:59:23;;;;;;;3.6;1.9;;;;;;;12.93;60.02246;923.2755;;;;
2024/01/03 12:02:14;;;;;;;1;0.9;;;;;;;12.91;57.81445;923.3918;;;;
2024/01/03 12:04:52;;;;;;;1.1;0.9;;;;;;;12.91;57.45996;923.3463;;;;
2024/01/03 12:07:30;;;;;;;1;0.8;;;;;;;12.96;55.96191;923.3651;;;;
2024/01/03 12:10:11;;;;;;;1.6;1;;;;;;;12.83;56.75879;923.377;;;;
2024/01/03 12:12:51;;;;;;;1.9;1;;;;;;;12.86;55.74121;923.3644;;;;
2024/01/03 12:15:30;;;;;;;4.2;1.3;;;;;;;12.86;55.9707;923.4299;;;;
2024/01/03 12:18:21;;;;;;;1.4;1;;;;;;;12.74;56.64453;923.2773;;;;
2024/01/03 12:20:46;;;;;;;0.9;0.8;;;;;;;12.88;53;923.3384;;;;
2024/01/03 12:23:25;;;;;;;0.6;0.6;;;;;;;12.95;52.55078;923.3639;;;;
2024/01/03 12:26:06;;;;;;;1.4;0.6;;;;;;;12.97;53.76855;923.4473;;;;
2024/01/03 12:28:36;;;;;;;2.5;0.6;;;;;;;12.98;55.28613;923.3784;;;;
2024/01/03 12:31:05;;;;;;;0.2;0.2;;;;;;;12.87;51.09277;923.278;;;;
2024/01/03 12:33:44;;;;;;;1.2;0.9;;;;;;;12.83;52.23633;923.3865;;;;
2024/01/03 12:36:25;;;;;;;1.8;1.1;;;;;;;12.85;52.58398;923.3973;;;;
2024/01/03 12:39:04;;;;;;;1;0.7;;;;;;;13;51.71777;923.3059;;;;
2024/01/03 12:41:45;;;;;;;0.9;0.8;;;;;;;13.08;47.16797;923.2634;;;;
2024/01/03 12:44:22;;;;;;;0.6;0.6;;;;;;;13.32;47.53906;923.3028;;;;
2024/01/03 12:47:04;;;;;;;1.6;0.9;;;;;;;13.38;48.93555;923.3182;;;;
2024/01/03 12:49:42;;;;;;;3.1;0.8;;;;;;;13.49;45.44141;923.1286;;;;
2024/01/03 12:52:19;;;;;;;5.2;0.8;;;;;;;13.43;46.76855;923.3228;;;;
2024/01/03 12:54:57;;;;;;;0.6;0.6;;;;;;;13.44;45;923.0915;;;;
2024/01/03 12:57:23;;;;;;;0.8;0.6;;;;;;;13.47;45.44043;923.0586;;;;
2024/01/03 12:59:49;;;;;;;0.7;0.7;;;;;;;13.28;43.87988;923.0369;;;;
2024/01/03 13:02:27;;;;;;;1.1;0.4;;;;;;;13.28;41.80078;923.0363;;;;
2024/01/03 13:05:07;;;;;;;4.6;0.8;;;;;;;13.29;43.50195;922.98;;;;
2024/01/03 13:07:45;;;;;;;1.2;0.6;;;;;;;13.34;41.77148;922.9724;;;;
2024/01/03 13:10:22;;;;;;;0.6;0.6;;;;;;;13.39;43.71875;922.9084;;;;
2024/01/03 13:12:48;;;;;;;2.9;0.9;;;;;;;13.28;45.54688;922.8738;;;;
2024/01/03 13:15:26;;;;;;;1.8;0.6;;;;;;;13.3;42.85938;922.855;;;;
2024/01/03 13:18:06;;;;;;;1.5;0.7;;;;;;;13.22;43.9209;922.9;;;;
2024/01/03 13:20:45;;;;;;;0.8;0.6;;;;;;;13.21;42.8623;922.8273;;;;
2024/01/03 13:23:32;;;;;;;1;0.5;;;;;;;13.29;42.65137;922.8544;;;;
2024/01/03 13:26:10;;;;;;;0.4;0.4;;;;;;;13.31;41.90625;922.8803;;;;
2024/01/03 13:28:35;;;;;;;0.6;0.5;;;;;;;13.38;42.55762;922.7272;;;;
2024/01/03 13:31:13;;;;;;;1.3;0.8;;;;;;;13.19;43.69922;922.6066;;;;
2024/01/03 13:33:41;;;;;;;2.8;0.8;;;;;;;13.07;45.11133;922.5773;;;;
2024/01/03 13:36:33;;;;;;;4.2;1.1;;;;;;;12.91;45.25391;922.6602;;;;
2024/01/03 13:39:11;;;;;;;1.7;0.8;;;;;;;12.82;43.81055;922.6264;;;;
2024/01/03 13:41:51;;;;;;;1.2;0.6;;;;;;;12.84;43.35352;922.6652;;;;
2024/01/03 13:44:29;;;;;;;3.4;1.2;;;;;;;12.9;43.91113;922.7426;;;;
2024/01/03 13:47:06;;;;;;;1.5;1;;;;;;;12.93;41.93848;922.5262;;;;
2024/01/03 13:49:47;;;;;;;3.1;1;;;;;;;12.87;44.7793;922.7092;;;;
2024/01/03 13:52:28;;;;;;;2.1;1.5;;;;;;;12.62;46.16602;922.7483;;;;
2024/01/03 13:55:06;;;;;;;4.1;1.7;;;;;;;12.54;47.13281;922.6803;;;;
2024/01/03 13:57:44;;;;;;;4.7;1.4;;;;;;;12.58;46.35547;922.6061;;;;
2024/01/03 14:00:13;;;;;;;1.6;1.3;;;;;;;12.39;47.4375;922.5503;;;;
2024/01/03 14:02:54;;;;;;;1;0.9;;;;;;;12.51;44.24902;922.54;;;;
2024/01/03 14:05:32;;;;;;;3.7;1.2;;;;;;;12.43;47.46289;922.5714;;;;
2024/01/03 14:08:03;;;;;;;1.9;0.9;;;;;;;12.18;49.52246;922.3967;;;;
2024/01/03 14:10:41;;;;;;;1.3;1.1;;;;;;;12.1;49.13574;922.4974;;;;
2024/01/03 14:13:20;;;;;;;4.1;1.4;;;;;;;12.1;49.49121;922.5851;;;;
2024/01/03 14:15:58;;;;;;;3.2;1.4;;;;;;;11.81;51.55273;922.3812;;;;
2024/01/03 14:18:37;;;;;;;3.2;1.4;;;;;;;11.67;51.8125;922.3278;;;;
2024/01/03 14:21:14;;;;;;;2.5;1.7;;;;;;;11.83;45.6123;922.2797;;;;
2024/01/03 14:23:44;;;;;;;4.7;3.1;;;;;;;11.88;49.48828;922.2003;;;;
2024/01/03 14:26:22;;;;;;;4.6;2.6;;;;;;;11.65;52.09473;922.3117;;;;
2024/01/03 14:29:00;;;;;;;5.7;2.3;;;;;;;11.41;52.53516;922.2449;;;;
2024/01/03 14:31:42;;;;;;;3.6;2;;;;;;;11.22;54.0332;922.1944;;;;
2024/01/03 14:34:21;;;;;;;5;1.6;;;;;;;11.16;54.0957;922.2191;;;;
2024/01/03 14:37:04;;;;;;;5.9;1.5;;;;;;;11.04;54.85645;922.2684;;;;
2024/01/03 14:39:30;;;;;;;7.1;1.7;;;;;;;10.9;56.02734;922.3726;;;;
2024/01/03 14:42:02;;;;;;;4.1;1.6;;;;;;;10.8;58.52734;922.3836;;;;
2024/01/03 14:44:40;;;;;;;5.7;1.7;;;;;;;10.73;57.2168;922.5034;;;;
2024/01/03 14:47:19;;;;;;;3.3;2.6;;;;;;;10.71;55.92383;922.5427;;;;
2024/01/03 14:49:57;;;;;;;7;3.6;;;;;;;10.58;56.4668;922.4919;;;;
2024/01/03 14:52:37;;;;;;;8.6;4.2;;;;;;;10.48;56.89746;922.3631;;;;
2024/01/03 14:55:15;;;;;;;5.2;2.7;;;;;;;10.58;53.45215;922.3002;;;;
2024/01/03 14:57:41;;;;;;;8.7;5.2;;;;;;;10.58;54.61621;922.399;;;;
2024/01/03 15:00:24;;;;;;;7.1;5.1;;;;;;;10.4;57.01367;922.2805;;;;
2024/01/03 15:03:11;;;;;;;11.1;6.1;;;;;;;10.31;57.48047;922.4045;;;;
2024/01/03 15:05:54;;;;;;;11.5;5.2;;;;;;;10.16;58.33887;922.3901;;;;
2024/01/03 15:08:37;;;;;;;7.1;3.2;;;;;;;10.24;55.55469;922.3395;;;;
2024/01/03 15:11:16;;;;;;;6.6;2.9;;;;;;;10.32;55.1875;922.3551;;;;
2024/01/03 15:13:54;;;;;;;8.3;3;;;;;;;10.24;57.84863;922.2806;;;;
2024/01/03 15:16:35;;;;;;;4.5;2.6;;;;;;;10.12;58.02539;922.1063;;;;
2024/01/03 15:19:15;;;;;;;5.6;2.7;;;;;;;10.06;58.59863;922.0737;;;;
2024/01/03 15:21:54;;;;;;;8.4;3.3;;;;;;;9.96;59.58789;922.0606;;;;
2024/01/03 15:24:31;;;;;;;12.8;3.8;;;;;;;9.85;60.79297;922.1019;;;;
2024/01/03 15:26:56;;;;;;;11.4;4.6;;;;;;;9.76;59.99414;921.9821;;;;
2024/01/03 15:29:21;;;;;;;10;3.8;;;;;;;9.71;60.4668;922.0662;;;;
2024/01/03 15:31:59;;;;;;;7.6;3;;;;;;;9.61;59.46094;922.0986;;;;
2024/01/03 15:34:37;;;;;;;4.8;2.4;;;;;;;9.56;59.23828;922.1252;;;;